x

South Hatteras - 225 South Of Cape Hatteras (41002) Wave Buoy

4:50am - Sun 19th Nov 2017 All times are EST. -5 hours from GMT.

  • Sig Wave height 4.3ft
  • Swell Direction
  • Peak Period 5s
  • Average Period 4s
  • Wind
    20mph, 27mph gusts
  • Sea Temp 77°f
  • Air Temp 75°f
  • Sea Pressure 1010.6mb
  • South Hatteras - 225 South Of Cape Hatteras
  • South Hatteras - 225 South Of Cape Hatteras

More Historic Weather Station data

Upgrade to MSW Pro to gain access to the past 30 days of data for over 8000 Wavebouys and Weather Stations around the globe.

Join

Comparision Forecast

View Surf forecast
   
Sun 11/19 4:50am 4.5ft 5s 4s 20 27 mph 1010.6mb 77f 75f
3:50am 4.5ft 5s 4s 20 25 mph 1011.2mb 77f 74f
2:50am 4.5ft 5s 4s 22 29 mph 1011.6mb 77f 74f
1:50am 4.5ft 4s 4s 25 31 mph 1012.1mb 77f 74f
12:50am 4ft 9s 4s 22 27 mph 1012.9mb 76f 73f
Sat 11/18 11:50pm 4ft 9s 5s 20 27 mph 1013.6mb 76f 73f
10:50pm 3.5ft 8s 5s 18 25 mph 1014.1mb 76f 73f
9:50pm 4ft 8s 5s 16 18 mph 1014.5mb 76f 72f
8:50pm 4ft 9s 6s 16 22 mph 1014.8mb 76f 72f
7:50pm 4ft 10s 7s 13 20 mph 1014.9mb 76f 71f
6:50pm 4.5ft 8s 7s 11 16 mph 1014.6mb 77f 71f
5:50pm 4.5ft 8s 7s 9 13 mph 1015mb 77f 71f
4:50pm 4.5ft 9s 7s 11 13 mph 1015.1mb 77f 71f
3:50pm 5ft 8s 7s 13 16 mph 1015.2mb 77f 71f
2:50pm 5.5ft 9s 7s 11 18 mph 1015.6mb 77f 71f
1:50pm 5.5ft 8s 7s 7 11 mph 1016mb 77f 70f
12:50pm 5.5ft 10s 7s 4 9 mph 1016.9mb 77f 70f
11:50am 5.5ft 8s 7s 9 13 mph 1017.6mb 77f 70f
10:50am 5ft 10s 7s 7 9 mph 1018.4mb 77f 70f
9:50am 6ft 9s 7s 4 9 mph 1018.9mb 77f 70f
8:50am 6ft 8s 7s 4 7 mph 1019.4mb 77f 69f
7:50am 6ft 12s 7s 4 11 mph 1019.2mb 77f 69f
6:50am 6ft 9s 7s 2 4 mph 1018.7mb 77f 68f
5:50am 7ft 9s 7s 4 7 mph 1018.5mb 77f 68f
4:50am 6ft 9s 7s 7 11 mph 1018mb 77f 68f
3:50am 7ft 9s 7s 7 11 mph 1018mb 77f 68f
2:50am 7ft 8s 7s 7 11 mph 1018.2mb 77f 68f
1:50am 7.5ft 8s 7s 11 18 mph 1018.6mb 77f 68f
12:50am 7ft 8s 7s 11 16 mph 1018.9mb 77f 68f
Fri 11/17 11:50pm 7ft 8s 7s 9 16 mph 1019mb 77f 68f
10:50pm 7ft 11s 7s 13 20 mph 1019mb 77f 68f
9:50pm 7ft 8s 7s 13 20 mph 1019.5mb 77f 68f
8:50pm 7ft 7s 7s 13 18 mph 1019.6mb 77f 67f
7:50pm 7ft 8s 7s 16 18 mph 1019mb 77f 68f
6:50pm 7ft 8s 7s 13 18 mph 1018.8mb 77f 68f
5:50pm 7ft 7s 7s 16 20 mph 1018.5mb 77f 68f
4:50pm 7.5ft 12s 7s 13 18 mph 1018.1mb 77f 68f
3:50pm 8ft 7s 7s 13 20 mph 1017.9mb 77f 69f
2:50pm 8ft 7s 7s 18 22 mph 1017.4mb 77f 69f
1:50pm 8ft 7s 7s 18 22 mph 1017.3mb 77f 69f
12:50pm 7.5ft 7s 7s 16 18 mph 1017.8mb 77f 69f
11:50am 8ft 11s 7s 18 22 mph 1018mb 77f 70f
10:50am 7ft 7s 7s 18 22 mph 1018.3mb 77f 70f
9:50am 7ft 6s 6s 18 25 mph 1018.2mb 77f 70f
8:50am 7ft 12s 7s 18 25 mph 1017.8mb 77f 70f
7:50am 7ft 11s 7s 18 22 mph 1017.3mb 77f 69f
6:50am 7ft 11s 7s 20 25 mph 1016.7mb 77f 69f
5:50am 7ft 11s 7s 16 20 mph 1016.4mb 77f 70f
4:50am 6.5ft 7s 6s 18 22 mph 1015.8mb 77f 70f
3:50am 7ft 11s 7s 18 22 mph 1015.7mb 77f 69f
2:50am 7ft 11s 6s 16 22 mph 1015.6mb 77f 69f
1:50am 7ft 8s 7s 16 20 mph 1015.5mb 77f 70f
12:50am 7ft 11s 7s 16 20 mph 1015.4mb 77f 70f
Thu 11/16 11:50pm 6.5ft 9s 7s 16 20 mph 1015.5mb 77f 71f
10:50pm 7ft 11s 7s 16 20 mph 1015.4mb 77f 70f
9:50pm 6.5ft 11s 7s 13 18 mph 1015.3mb 77f 70f
8:50pm 6.5ft 8s 7s 11 16 mph 1015mb 77f 70f
7:50pm 7ft 7s 7s 11 16 mph 1014.5mb 77f 70f
6:50pm 7ft 12s 7s 11 16 mph 1014.3mb 77f 70f
5:50pm 7.5ft 10s 7s 11 13 mph 1013.6mb 77f 71f
4:50pm 7ft 8s 7s 13 18 mph 1013.1mb 77f 71f
3:50pm 7ft 10s 7s 16 20 mph 1012.6mb 77f 72f
2:50pm 7ft 9s 7s 16 20 mph 1012.5mb 77f 72f
1:50pm 7ft 11s 6s 18 22 mph 1012.7mb 77f 73f
12:50pm 7.5ft 10s 7s 16 20 mph 1012.9mb 77f 73f
11:50am 7.5ft 10s 7s 18 20 mph 1013.3mb 77f 73f
10:50am 7ft 10s 7s 13 18 mph 1014.1mb 77f 73f
9:50am 8ft 10s 7s 18 20 mph 1014.1mb 77f 73f
8:50am 8ft 10s 8s 13 16 mph 1014mb 77f 73f
7:50am 7ft 11s 7s 11 16 mph 1013.6mb 77f 73f
6:50am 8ft 10s 8s 11 13 mph 1013.6mb 77f 74f
5:50am 7.5ft 10s 8s 11 13 mph 1013.3mb 77f 74f
4:50am 6ft 9s 7s 9 13 mph 1013.1mb 77f 74f
3:50am 7ft 11s 7s 11 13 mph 1013.1mb 77f 74f
2:50am 7.5ft 11s 7s 9 13 mph 1013.3mb 77f 73f
1:50am 7.5ft 8s 7s 9 11 mph 1013.5mb 77f 74f
12:50am 8ft 8s 7s 11 13 mph 1013.7mb 77f 73f
Wed 11/15 11:50pm 7ft 9s 7s 9 13 mph 1014.1mb 77f 73f
10:50pm 7ft 8s 6s 9 13 mph 1014.3mb 77f 74f
9:50pm 7ft 8s 7s 11 16 mph 1014.3mb 77f 74f
8:50pm 7ft 8s 6s 9 11 mph 1014.7mb 77f 74f
7:50pm 7ft 8s 6s 11 13 mph 1014.4mb 77f 73f
6:50pm 7ft 8s 7s 13 18 mph 1013.9mb 77f 73f
5:50pm 7ft 8s 7s 11 13 mph 1013.5mb 77f 73f
4:50pm 7ft 9s 7s 13 18 mph 1013.1mb 77f 73f
3:50pm 6.5ft 8s 7s 13 16 mph 1013mb 77f 73f
2:50pm 7ft 9s 7s 9 13 mph 1013mb 77f 73f
1:50pm 7ft 9s 7s 9 13 mph 1013mb 77f 73f
12:50pm 7ft 10s 7s 9 11 mph 1013.6mb 78f 73f
11:50am 7.5ft 9s 7s 11 13 mph 1014.2mb 78f 73f
10:50am 6.5ft 8s 6s 7 9 mph 1015mb 77f 73f